Allen, Kansas
Current Conditions -  °F | °C
As of 6:53 PM on Monday 22 Dec 2014 (Local Time) from KEMP Reporting Station
Few Clouds Few Clouds  
Wind Chill: 33°   Ceiling: Unl
Heat Index: 39°   Visibility: 10mi
Dew Point: 35°   Wind: 8mph
Humidity: 86%   Direction: 270°W
Pressure: 29.55"   Gusts: NA
Location:  38.66°N, 96.17°W
Report Text: KEMP 230053Z AUTO 27007KT 10SM FEW070 04/02 A2955 RMK AO2 SLP013 T00390017
Loading
Personal Weather Stations






























Interactive Weather Map New forecast layout! Learn more

10-Day Weather Forecast

Advertisements
Track Severe Weather on mobile